Time;durP1;ratioP1;P1;durP2;ratioP2;P2;SDS_P1;SDS_P2;PMS_P1;PMS_P2;Temp;Humidity;BMP_temperature;BMP_pressure;BME280_temperature;BME280_humidity;BME280_pressure;Samples;Min_cycle;Max_cycle;Signal;HPM_P1;HPM_P2
2022/08/16 00:02:11;;;;;;;7.53;6.57;;;21.40;50.90;;;;;;5039639;28;20933;-79
2022/08/16 00:04:36;;;;;;;8.17;6.73;;;21.40;50.50;;;;;;5038258;28;20406;-79
2022/08/16 00:07:02;;;;;;;9.18;6.60;;;21.40;50.90;;;;;;5039006;28;20387;-79
2022/08/16 00:09:28;;;;;;;9.68;7.28;;;21.40;51.20;;;;;;5037678;28;20399;-79
2022/08/16 00:11:54;;;;;;;11.70;7.68;;;21.40;51.30;;;;;;5037386;28;20782;-79
2022/08/16 00:14:23;;;;;;;8.63;7.50;;;21.40;51.30;;;;;;5052951;28;20483;-79
2022/08/16 00:16:49;;;;;;;9.25;6.70;;;21.40;51.90;;;;;;5039324;28;20391;-78
2022/08/16 00:19:22;;;;;;;6.93;6.22;;;21.30;52.40;;;;;;5042709;28;20467;-78
2022/08/16 00:21:48;;;;;;;8.82;6.82;;;21.30;52.80;;;;;;5047958;28;20383;-77
2022/08/16 00:24:15;;;;;;;11.27;6.82;;;21.30;53.20;;;;;;5046523;28;20391;-78
2022/08/16 00:26:42;;;;;;;12.32;6.93;;;21.40;52.60;;;;;;5046869;28;20389;-79
2022/08/16 00:29:08;;;;;;;11.60;7.55;;;21.30;52.80;;;;;;5047628;28;20441;-77
2022/08/16 00:31:34;;;;;;;13.55;7.00;;;21.30;52.60;;;;;;5049860;28;20390;-77
2022/08/16 00:34:00;;;;;;;10.07;7.20;;;21.40;52.70;;;;;;5041489;28;20420;-79
2022/08/16 00:36:26;;;;;;;9.73;6.90;;;21.40;52.90;;;;;;5037390;28;20903;-79
2022/08/16 00:38:52;;;;;;;12.45;7.35;;;21.40;53.20;;;;;;5042808;28;20454;-78
2022/08/16 00:41:18;;;;;;;8.23;7.00;;;21.50;52.30;;;;;;5047407;28;20387;-78
2022/08/16 00:43:44;;;;;;;9.45;7.38;;;21.50;52.40;;;;;;5062898;28;20418;-78
2022/08/16 00:46:34;;;;;;;10.30;7.20;;;21.50;52.40;;;;;;5042362;28;20383;-79
2022/08/16 00:49:03;;;;;;;10.00;7.20;;;21.60;51.90;;;;;;5025243;28;20402;-78
2022/08/16 00:51:29;;;;;;;9.20;7.27;;;21.50;52.80;;;;;;5032529;28;20490;-79
2022/08/16 00:53:54;;;;;;;8.23;7.13;;;21.60;52.10;;;;;;5032399;28;20868;-78
2022/08/16 00:56:27;;;;;;;11.60;7.90;;;21.60;52.50;;;;;;5032437;28;20390;-77
2022/08/16 00:58:53;;;;;;;10.05;7.30;;;21.60;52.50;;;;;;5031976;28;20411;-77
2022/08/16 01:01:19;;;;;;;7.80;7.00;;;21.60;52.10;;;;;;5031775;28;20387;-77
2022/08/16 01:03:49;;;;;;;11.82;7.03;;;21.50;52.00;;;;;;5033867;28;20407;-78
2022/08/16 01:06:17;;;;;;;10.15;7.10;;;21.60;51.90;;;;;;5032652;28;20383;-77
2022/08/16 01:08:44;;;;;;;11.13;7.38;;;21.60;52.20;;;;;;5032109;28;20868;-77
2022/08/16 01:11:10;;;;;;;11.97;7.67;;;21.50;52.20;;;;;;5031535;28;20403;-77
2022/08/16 01:13:38;;;;;;;15.23;8.03;;;21.60;51.70;;;;;;5031678;28;20406;-77
2022/08/16 01:16:20;;;;;;;10.40;7.30;;;21.70;50.90;;;;;;5031802;28;20406;-78
2022/08/16 01:18:50;;;;;;;11.30;7.32;;;21.70;51.20;;;;;;5031665;28;20892;-77
2022/08/16 01:21:25;;;;;;;7.90;6.80;;;21.60;51.90;;;;;;5031332;28;20383;-78
2022/08/16 01:24:14;;;;;;;12.90;6.80;;;21.60;52.70;;;;;;5031387;28;20470;-78
2022/08/16 01:26:41;;;;;;;10.70;7.53;;;21.60;52.70;;;;;;5031476;28;20851;-77
2022/08/16 01:29:11;;;;;;;11.47;7.97;;;21.60;52.20;;;;;;5031357;28;20521;-77
2022/08/16 01:31:36;;;;;;;9.32;7.20;;;21.60;52.90;;;;;;5031551;28;20631;-77
2022/08/16 01:34:03;;;;;;;12.00;8.40;;;21.60;52.90;;;;;;5031357;28;20395;-77
2022/08/16 01:36:29;;;;;;;9.05;7.70;;;21.50;52.40;;;;;;5031272;28;20398;-77
2022/08/16 01:38:54;;;;;;;10.98;8.30;;;21.50;52.80;;;;;;5046801;28;20407;-78
2022/08/16 01:41:24;;;;;;;15.38;8.00;;;21.50;52.70;;;;;;5030961;28;20390;-77
2022/08/16 01:43:52;;;;;;;11.17;8.10;;;21.50;51.80;;;;;;5031184;28;20389;-77
2022/08/16 01:46:27;;;;;;;10.55;7.70;;;21.50;51.60;;;;;;5031032;28;20394;-78
2022/08/16 01:48:56;;;;;;;13.15;7.90;;;21.40;52.00;;;;;;5046841;28;20387;-78
2022/08/16 01:51:23;;;;;;;11.20;7.78;;;21.40;51.90;;;;;;5031184;28;20415;-78
2022/08/16 01:53:49;;;;;;;12.70;7.70;;;21.40;51.40;;;;;;5031262;28;20565;-77
2022/08/16 01:56:14;;;;;;;14.13;7.70;;;21.30;51.90;;;;;;5031629;28;20383;-77
2022/08/16 01:58:40;;;;;;;10.70;7.50;;;21.30;51.20;;;;;;5031978;28;20742;-77
2022/08/16 02:01:06;;;;;;;10.73;7.60;;;21.30;51.30;;;;;;5030872;28;20387;-78
2022/08/16 02:03:32;;;;;;;12.57;7.70;;;21.20;51.20;;;;;;5030968;28;20470;-77
2022/08/16 02:05:57;;;;;;;13.00;8.23;;;21.20;50.90;;;;;;5030969;28;20473;-78
2022/08/16 02:08:25;;;;;;;12.75;7.93;;;21.10;51.40;;;;;;5030910;28;20765;-77
2022/08/16 02:10:53;;;;;;;11.35;7.70;;;21.10;51.60;;;;;;5030257;28;20394;-79
2022/08/16 02:13:19;;;;;;;10.18;7.60;;;21.00;52.30;;;;;;5031017;28;20868;-77
2022/08/16 02:15:45;;;;;;;12.30;8.20;;;20.90;52.90;;;;;;5058295;23;20433;-74
2022/08/16 02:18:12;;;;;;;13.48;7.80;;;20.90;53.00;;;;;;5052346;28;20413;-74
2022/08/16 02:20:39;;;;;;;8.85;7.30;;;20.80;53.40;;;;;;5052616;28;20437;-74
2022/08/16 02:23:05;;;;;;;12.30;7.60;;;20.90;53.60;;;;;;5052781;28;20750;-74
2022/08/16 02:25:32;;;;;;;8.98;7.15;;;20.80;54.20;;;;;;5052390;28;20894;-75
2022/08/16 02:27:58;;;;;;;11.38;7.53;;;20.70;55.00;;;;;;5066745;28;20412;-73
2022/08/16 02:30:26;;;;;;;13.33;8.03;;;20.60;55.30;;;;;;5074855;28;20386;-73
2022/08/16 02:32:52;;;;;;;12.00;8.50;;;20.70;55.00;;;;;;5067211;28;20401;-74
2022/08/16 02:35:19;;;;;;;11.20;7.90;;;20.60;55.30;;;;;;5053924;28;20723;-75
2022/08/16 02:37:45;;;;;;;13.13;7.60;;;20.60;55.30;;;;;;5053102;28;20496;-74
2022/08/16 02:40:15;;;;;;;12.93;8.32;;;20.60;55.80;;;;;;5052481;28;20424;-75
2022/08/16 02:42:41;;;;;;;11.38;7.45;;;20.50;56.30;;;;;;5051305;28;20448;-74
2022/08/16 02:45:06;;;;;;;12.95;7.50;;;20.40;56.60;;;;;;5051906;28;20404;-74
2022/08/16 02:47:32;;;;;;;14.07;7.85;;;20.40;57.20;;;;;;5052592;28;20385;-74
2022/08/16 02:49:57;;;;;;;13.30;7.50;;;20.30;57.80;;;;;;5052791;28;20384;-75
2022/08/16 02:52:23;;;;;;;11.32;7.82;;;20.40;57.00;;;;;;5052390;28;20809;-74
2022/08/16 02:54:49;;;;;;;10.90;7.20;;;20.20;57.70;;;;;;5052247;28;20731;-74
2022/08/16 02:57:14;;;;;;;10.83;7.77;;;20.20;58.00;;;;;;5052403;28;20751;-75
2022/08/16 02:59:41;;;;;;;9.35;7.70;;;20.10;59.00;;;;;;5052697;28;20401;-75
2022/08/16 03:02:09;;;;;;;10.80;7.60;;;20.00;59.30;;;;;;5053191;28;20920;-75
2022/08/16 03:04:35;;;;;;;10.80;7.30;;;19.90;60.10;;;;;;5058900;28;20384;-76
2022/08/16 03:07:01;;;;;;;12.38;7.60;;;19.90;60.80;;;;;;5058439;28;20381;-74
2022/08/16 03:09:26;;;;;;;12.02;7.70;;;19.90;61.00;;;;;;5053911;28;20389;-74
2022/08/16 03:11:52;;;;;;;10.23;7.10;;;19.80;61.40;;;;;;5050696;28;20386;-73
2022/08/16 03:14:18;;;;;;;13.80;7.40;;;19.70;62.70;;;;;;5051673;28;20399;-74
2022/08/16 03:16:43;;;;;;;11.32;7.60;;;19.70;62.40;;;;;;5050356;28;20397;-75
2022/08/16 03:19:09;;;;;;;9.52;7.95;;;19.70;62.70;;;;;;5052214;28;20416;-75
2022/08/16 03:21:35;;;;;;;10.10;7.77;;;19.70;63.10;;;;;;5053825;28;20389;-74
2022/08/16 03:24:01;;;;;;;10.18;7.80;;;19.60;62.80;;;;;;5054990;28;20392;-74
2022/08/16 03:26:27;;;;;;;7.70;6.90;;;19.60;63.60;;;;;;5054997;28;20897;-75
2022/08/16 03:28:52;;;;;;;9.13;7.40;;;19.50;63.90;;;;;;5055375;28;20472;-74
2022/08/16 03:31:18;;;;;;;11.63;7.30;;;19.50;64.40;;;;;;5055843;28;20386;-76
2022/08/16 03:33:43;;;;;;;12.90;7.50;;;19.40;65.40;;;;;;5056242;28;20868;-75
2022/08/16 03:36:09;;;;;;;11.17;7.77;;;19.40;65.70;;;;;;5055478;28;20528;-75
2022/08/16 03:38:35;;;;;;;12.73;7.50;;;19.30;66.10;;;;;;5054656;28;20404;-75
2022/08/16 03:41:04;;;;;;;13.27;7.37;;;19.30;66.30;;;;;;5055377;28;20381;-76
2022/08/16 03:43:29;;;;;;;10.05;7.13;;;19.30;65.60;;;;;;5054460;28;20389;-75
2022/08/16 03:45:58;;;;;;;12.18;7.38;;;19.30;66.20;;;;;;5055498;28;20390;-75
2022/08/16 03:48:31;;;;;;;10.50;7.50;;;19.20;67.10;;;;;;5053900;28;20470;-74
2022/08/16 03:50:58;;;;;;;9.02;7.50;;;19.20;67.40;;;;;;5053905;28;20396;-74
2022/08/16 03:53:24;;;;;;;12.02;7.75;;;19.30;65.60;;;;;;5056138;28;20382;-75
2022/08/16 03:55:50;;;;;;;9.90;7.00;;;19.40;64.80;;;;;;5055335;28;20381;-75
2022/08/16 03:58:16;;;;;;;8.88;7.30;;;19.30;65.70;;;;;;5056190;28;20981;-75
2022/08/16 04:00:42;;;;;;;10.80;7.63;;;19.20;66.40;;;;;;5055754;28;20793;-75
2022/08/16 04:03:08;;;;;;;10.20;7.77;;;19.20;67.00;;;;;;5056066;28;20707;-74
2022/08/16 04:05:36;;;;;;;10.82;7.20;;;19.10;67.80;;;;;;5055335;28;20386;-75
2022/08/16 04:08:03;;;;;;;8.77;7.55;;;19.10;68.00;;;;;;5070835;28;20451;-75
2022/08/16 04:10:29;;;;;;;12.23;7.77;;;19.10;67.40;;;;;;5053724;28;20455;-74
2022/08/16 04:12:56;;;;;;;9.90;7.90;;;19.10;67.60;;;;;;5054985;28;20385;-74
2022/08/16 04:15:21;;;;;;;12.50;7.60;;;19.10;67.70;;;;;;5065169;28;20405;-73
2022/08/16 04:17:47;;;;;;;13.67;7.27;;;19.10;67.10;;;;;;5077524;28;20549;-73
2022/08/16 04:20:14;;;;;;;10.57;7.18;;;19.10;67.20;;;;;;5076933;28;20389;-74
2022/08/16 04:22:42;;;;;;;12.13;7.40;;;19.10;67.50;;;;;;5073740;28;20405;-75
2022/08/16 04:25:09;;;;;;;11.00;7.53;;;19.00;67.50;;;;;;5054047;28;20397;-75
2022/08/16 04:27:35;;;;;;;13.75;7.32;;;19.00;68.60;;;;;;5054437;28;20810;-75
2022/08/16 04:30:02;;;;;;;11.17;7.43;;;18.90;69.30;;;;;;5055178;28;20417;-74
2022/08/16 04:32:28;;;;;;;12.93;7.10;;;18.90;68.70;;;;;;5052722;28;20404;-74
2022/08/16 04:34:53;;;;;;;13.93;7.40;;;19.00;68.70;;;;;;5055463;28;20378;-74
2022/08/16 04:37:19;;;;;;;8.47;7.57;;;19.00;68.60;;;;;;5054704;28;20429;-73
2022/08/16 04:39:45;;;;;;;12.38;7.10;;;19.00;67.90;;;;;;5054362;28;20924;-74
2022/08/16 04:42:10;;;;;;;14.33;7.37;;;19.00;68.00;;;;;;5055005;28;20435;-75
2022/08/16 04:44:36;;;;;;;11.40;6.90;;;19.00;68.00;;;;;;5053811;28;20874;-75
2022/08/16 04:47:02;;;;;;;11.38;6.97;;;19.00;68.00;;;;;;5054885;28;20428;-75
2022/08/16 04:49:28;;;;;;;9.50;7.47;;;19.10;66.30;;;;;;5054661;28;20400;-74
2022/08/16 04:51:53;;;;;;;10.47;6.87;;;19.10;66.10;;;;;;5053969;28;20389;-76
2022/08/16 04:54:19;;;;;;;9.05;6.80;;;19.20;65.20;;;;;;5053624;28;20389;-76
2022/08/16 04:56:45;;;;;;;8.68;7.65;;;19.10;65.80;;;;;;5053958;28;20439;-74
2022/08/16 04:59:11;;;;;;;13.00;7.10;;;19.10;66.00;;;;;;5054745;28;20397;-74
2022/08/16 05:01:36;;;;;;;9.00;6.70;;;19.10;66.10;;;;;;5054057;28;20382;-77
2022/08/16 05:04:03;;;;;;;11.00;6.80;;;19.20;65.70;;;;;;5055258;28;20892;-75
2022/08/16 05:06:29;;;;;;;13.55;7.30;;;19.40;63.50;;;;;;5053680;28;20407;-75
2022/08/16 05:08:55;;;;;;;10.07;6.93;;;19.40;62.70;;;;;;5053916;28;20419;-75
2022/08/16 05:11:21;;;;;;;13.30;6.90;;;19.50;61.90;;;;;;5053677;28;20381;-76
2022/08/16 05:13:48;;;;;;;8.20;6.25;;;19.50;62.20;;;;;;5053284;28;20404;-75
2022/08/16 05:16:23;;;;;;;10.30;6.85;;;19.50;61.90;;;;;;5053678;28;20410;-75
2022/08/16 05:18:51;;;;;;;12.80;6.93;;;19.50;62.20;;;;;;5054728;28;20489;-75
2022/08/16 05:21:16;;;;;;;12.30;7.30;;;19.50;62.10;;;;;;5054291;28;20378;-74
2022/08/16 05:23:42;;;;;;;9.73;7.22;;;19.60;61.80;;;;;;5054302;28;20404;-75
2022/08/16 05:26:08;;;;;;;12.13;7.00;;;19.60;60.60;;;;;;5054400;28;20374;-74
2022/08/16 05:28:33;;;;;;;8.35;6.68;;;19.70;60.60;;;;;;5054751;28;20814;-75
2022/08/16 05:31:00;;;;;;;12.03;6.70;;;19.80;60.00;;;;;;5054411;28;20381;-75
2022/08/16 05:33:26;;;;;;;8.88;6.70;;;19.80;59.20;;;;;;5055098;28;20382;-76
2022/08/16 05:35:51;;;;;;;13.60;7.57;;;19.80;58.90;;;;;;5053832;28;20746;-76
2022/08/16 05:38:17;;;;;;;11.98;6.90;;;19.90;58.00;;;;;;5053845;28;20815;-75
2022/08/16 05:40:44;;;;;;;12.80;7.70;;;20.10;57.10;;;;;;5053880;28;20388;-74
2022/08/16 05:43:10;;;;;;;11.55;7.10;;;20.10;55.80;;;;;;5053249;28;20392;-74
2022/08/16 05:45:36;;;;;;;10.48;7.30;;;20.20;55.70;;;;;;5052625;28;20377;-76
2022/08/16 05:48:02;;;;;;;10.23;7.00;;;20.30;55.20;;;;;;5052954;28;20447;-74
2022/08/16 05:50:27;;;;;;;12.13;7.43;;;20.40;54.40;;;;;;5053776;28;20393;-75
2022/08/16 05:52:53;;;;;;;12.00;7.60;;;20.50;53.40;;;;;;5053666;28;20469;-73
2022/08/16 05:55:18;;;;;;;13.13;7.05;;;20.50;53.20;;;;;;5052852;28;20393;-74
2022/08/16 05:57:46;;;;;;;11.73;7.40;;;20.60;52.40;;;;;;5053558;28;20406;-74
2022/08/16 06:00:13;;;;;;;13.38;7.72;;;20.70;51.20;;;;;;5055784;28;20419;-75
2022/08/16 06:02:40;;;;;;;15.25;7.40;;;20.80;49.40;;;;;;5053266;28;20389;-75
2022/08/16 06:05:06;;;;;;;12.63;7.00;;;20.80;49.80;;;;;;5053087;28;20447;-74
2022/08/16 06:07:32;;;;;;;13.40;7.67;;;20.90;49.90;;;;;;5053520;28;20420;-74
2022/08/16 06:09:58;;;;;;;10.40;7.20;;;21.00;48.70;;;;;;5052990;28;20382;-74
2022/08/16 06:12:24;;;;;;;18.40;6.53;;;21.00;48.40;;;;;;5052487;28;20440;-76
2022/08/16 06:14:50;;;;;;;12.75;7.40;;;21.10;47.90;;;;;;5051495;28;20402;-75
2022/08/16 06:17:16;;;;;;;11.00;7.37;;;21.20;47.30;;;;;;5052814;28;20383;-76
2022/08/16 06:19:42;;;;;;;15.37;7.50;;;21.20;47.40;;;;;;5051980;28;20837;-74
2022/08/16 06:22:08;;;;;;;12.35;6.85;;;21.40;46.60;;;;;;5052165;28;20416;-73
2022/08/16 06:24:34;;;;;;;14.73;7.80;;;21.40;46.10;;;;;;5072238;28;20381;-75
2022/08/16 06:26:59;;;;;;;13.33;7.87;;;21.60;45.00;;;;;;5074695;28;20424;-75
2022/08/16 06:29:25;;;;;;;16.52;7.00;;;21.60;45.00;;;;;;5065745;28;20404;-74
2022/08/16 06:31:51;;;;;;;15.87;7.20;;;21.70;44.70;;;;;;5053017;28;20393;-73
2022/08/16 06:34:17;;;;;;;16.60;7.57;;;21.80;44.10;;;;;;5051487;28;20924;-75
2022/08/16 06:36:42;;;;;;;10.85;6.97;;;21.90;43.40;;;;;;5052926;28;20388;-75
2022/08/16 06:39:08;;;;;;;14.32;7.40;;;21.90;42.90;;;;;;5047602;28;20898;-75
2022/08/16 06:41:33;;;;;;;13.40;7.30;;;22.00;42.60;;;;;;5041491;28;20456;-75
2022/08/16 06:44:00;;;;;;;10.10;7.20;;;22.00;42.40;;;;;;5047681;28;20448;-74
2022/08/16 06:46:33;;;;;;;14.93;7.40;;;22.30;40.90;;;;;;5032253;28;20403;-74
2022/08/16 06:49:06;;;;;;;17.02;8.40;;;22.40;40.50;;;;;;5033134;28;20394;-74
2022/08/16 06:51:32;;;;;;;17.90;8.40;;;22.50;39.70;;;;;;5042627;28;20400;-75
2022/08/16 06:53:58;;;;;;;10.57;8.70;;;22.40;39.40;;;;;;5051009;28;20397;-75
2022/08/16 06:56:24;;;;;;;11.35;8.00;;;22.40;39.80;;;;;;5050816;28;20409;-74
2022/08/16 06:58:51;;;;;;;13.33;7.50;;;22.40;39.70;;;;;;5043324;28;20417;-76
2022/08/16 07:01:17;;;;;;;8.85;7.32;;;22.60;39.00;;;;;;5043835;28;20425;-73
2022/08/16 07:03:43;;;;;;;11.15;7.50;;;22.70;38.50;;;;;;5035757;28;20429;-75
2022/08/16 07:06:10;;;;;;;15.23;8.18;;;22.80;38.20;;;;;;5050291;28;20453;-75
2022/08/16 07:08:36;;;;;;;15.63;9.00;;;23.00;37.20;;;;;;5035687;28;20394;-75
2022/08/16 07:11:02;;;;;;;10.40;8.32;;;22.90;36.90;;;;;;5043841;28;20426;-74
2022/08/16 07:13:29;;;;;;;13.90;8.80;;;22.90;37.40;;;;;;5050803;28;20401;-74
2022/08/16 07:15:56;;;;;;;15.85;8.13;;;22.90;37.60;;;;;;5054893;28;20409;-74
2022/08/16 07:18:22;;;;;;;18.80;9.67;;;23.10;36.80;;;;;;5054553;28;20484;-74
2022/08/16 07:20:48;;;;;;;12.70;8.60;;;23.10;36.30;;;;;;5055553;28;20888;-75
2022/08/16 07:23:14;;;;;;;14.88;8.73;;;23.20;36.10;;;;;;5052858;28;20397;-74
2022/08/16 07:25:40;;;;;;;13.45;8.60;;;23.30;36.10;;;;;;5054325;28;20377;-73
2022/08/16 07:28:06;;;;;;;16.73;8.40;;;23.30;36.10;;;;;;5054738;28;20388;-74
2022/08/16 07:30:33;;;;;;;12.70;9.77;;;23.40;35.80;;;;;;5054567;28;20751;-76
2022/08/16 07:32:59;;;;;;;11.53;8.83;;;23.40;35.40;;;;;;5054424;28;20506;-74
2022/08/16 07:35:25;;;;;;;13.40;8.80;;;23.40;35.90;;;;;;5054476;28;20472;-74
2022/08/16 07:37:51;;;;;;;10.23;7.88;;;23.60;35.10;;;;;;5054711;28;20554;-75
2022/08/16 07:40:17;;;;;;;14.67;8.07;;;23.70;34.30;;;;;;5054751;28;20393;-73
2022/08/16 07:42:42;;;;;;;12.18;9.70;;;23.80;34.20;;;;;;5070204;28;20973;-73
2022/08/16 07:45:08;;;;;;;14.30;9.02;;;23.70;33.50;;;;;;5056284;28;20377;-73
2022/08/16 07:47:34;;;;;;;10.85;8.80;;;23.80;33.70;;;;;;5070701;28;20412;-72
2022/08/16 07:50:00;;;;;;;11.57;8.43;;;23.80;33.90;;;;;;5069253;28;20389;-73
2022/08/16 07:52:26;;;;;;;14.10;8.80;;;23.90;33.30;;;;;;5054134;28;20401;-73
2022/08/16 07:54:52;;;;;;;13.53;8.80;;;23.90;33.10;;;;;;5054993;28;20374;-73
2022/08/16 07:57:18;;;;;;;12.53;8.23;;;24.10;32.80;;;;;;5054007;28;20398;-74
2022/08/16 07:59:44;;;;;;;12.30;8.70;;;24.20;31.80;;;;;;5052994;28;20917;-75
2022/08/16 08:02:11;;;;;;;16.20;8.80;;;24.20;32.10;;;;;;5054176;28;20381;-74
2022/08/16 08:04:37;;;;;;;13.80;8.63;;;24.30;31.50;;;;;;5054587;28;20378;-74
2022/08/16 08:07:03;;;;;;;11.32;8.20;;;24.50;30.10;;;;;;5053290;28;20373;-73
2022/08/16 08:09:28;;;;;;;11.03;9.00;;;24.60;30.20;;;;;;5053792;28;20472;-74
2022/08/16 08:11:54;;;;;;;12.00;9.00;;;24.50;29.40;;;;;;5054558;28;20385;-74
2022/08/16 08:14:20;;;;;;;12.85;8.30;;;24.60;29.40;;;;;;5055142;28;20390;-74
2022/08/16 08:16:46;;;;;;;14.88;8.85;;;24.60;29.00;;;;;;5021660;23;20526;-79
2022/08/16 08:19:11;;;;;;;12.20;9.20;;;24.60;29.30;;;;;;5018644;28;20455;-79
2022/08/16 08:21:40;;;;;;;12.85;8.90;;;24.70;28.60;;;;;;5002123;28;20396;-76
2022/08/16 08:24:08;;;;;;;17.00;8.80;;;24.80;28.30;;;;;;5023749;28;20458;-79
2022/08/16 08:26:33;;;;;;;14.55;8.95;;;24.80;28.30;;;;;;5006938;28;20386;-78
2022/08/16 08:28:59;;;;;;;13.48;8.10;;;24.80;28.00;;;;;;5016189;28;20440;-80
2022/08/16 08:31:25;;;;;;;12.73;8.83;;;24.80;28.50;;;;;;5006194;28;20427;-80
2022/08/16 08:33:55;;;;;;;14.63;10.00;;;24.90;28.30;;;;;;5004673;28;20438;-80
2022/08/16 08:36:28;;;;;;;16.58;9.30;;;25.10;27.20;;;;;;5005721;28;20391;-80
2022/08/16 08:38:54;;;;;;;13.60;9.20;;;25.20;26.60;;;;;;5015664;28;20405;-80
2022/08/16 08:41:20;;;;;;;14.35;9.32;;;25.20;26.60;;;;;;5009275;28;20413;-80
2022/08/16 08:43:47;;;;;;;14.85;9.80;;;25.30;26.20;;;;;;4987449;28;20441;-79
2022/08/16 08:46:12;;;;;;;13.60;9.60;;;25.30;25.90;;;;;;5007175;28;20398;-81
2022/08/16 08:48:38;;;;;;;17.50;9.90;;;25.30;25.80;;;;;;5011476;28;20449;-80
2022/08/16 08:51:08;;;;;;;15.50;8.68;;;25.30;25.80;;;;;;5011318;28;20408;-79
2022/08/16 08:53:34;;;;;;;15.35;8.88;;;25.50;25.40;;;;;;5025581;28;20393;-80
2022/08/16 08:56:04;;;;;;;15.70;8.65;;;25.40;25.30;;;;;;5025926;28;20395;-79
2022/08/16 08:58:30;;;;;;;14.93;8.90;;;25.60;25.00;;;;;;5007287;28;20497;-78
2022/08/16 09:00:57;;;;;;;14.20;8.38;;;25.70;24.40;;;;;;5011853;28;20426;-78
2022/08/16 09:03:23;;;;;;;13.88;9.43;;;25.80;24.40;;;;;;5013772;28;20391;-78
2022/08/16 09:05:50;;;;;;;16.20;9.30;;;25.80;24.20;;;;;;4989605;28;20398;-78
2022/08/16 09:08:16;;;;;;;13.13;9.40;;;25.80;24.00;;;;;;5022297;28;20416;-79
2022/08/16 09:10:42;;;;;;;10.25;8.65;;;25.60;24.50;;;;;;5007288;28;20428;-80
2022/08/16 09:13:08;;;;;;;11.20;7.82;;;25.70;24.00;;;;;;5023528;28;20400;-81
2022/08/16 09:15:34;;;;;;;10.10;8.57;;;25.90;24.00;;;;;;5025965;28;20412;-79
2022/08/16 09:18:03;;;;;;;12.07;8.60;;;26.00;23.30;;;;;;5025464;28;20531;-81
2022/08/16 09:20:29;;;;;;;13.25;9.02;;;26.00;22.70;;;;;;5031158;28;20385;-79
2022/08/16 09:22:55;;;;;;;11.33;8.80;;;26.10;23.10;;;;;;5034658;28;20427;-78
2022/08/16 09:25:21;;;;;;;12.38;8.98;;;26.20;22.40;;;;;;5011466;28;20464;-80
2022/08/16 09:27:47;;;;;;;11.52;9.00;;;26.40;22.00;;;;;;5003840;28;20395;-82
2022/08/16 09:30:13;;;;;;;14.40;8.60;;;26.40;20.40;;;;;;5004153;28;20406;-82
2022/08/16 09:32:38;;;;;;;13.52;8.55;;;26.50;20.20;;;;;;5003984;28;20395;-81
2022/08/16 09:35:05;;;;;;;13.30;8.90;;;26.50;21.40;;;;;;5004955;28;20505;-81
2022/08/16 09:37:33;;;;;;;13.05;9.18;;;26.60;21.00;;;;;;5005078;28;20390;-81
2022/08/16 09:40:00;;;;;;;12.10;8.80;;;26.70;20.60;;;;;;5007495;28;20418;-82
2022/08/16 09:42:27;;;;;;;11.73;9.10;;;26.70;19.80;;;;;;4987897;28;20397;-81
2022/08/16 09:44:53;;;;;;;10.02;7.63;;;26.90;19.60;;;;;;5017379;28;20396;-80
2022/08/16 09:47:18;;;;;;;12.93;8.40;;;26.80;19.60;;;;;;5027671;28;20400;-76
2022/08/16 09:49:44;;;;;;;14.77;7.73;;;26.90;19.50;;;;;;5035879;28;20416;-80
2022/08/16 09:52:10;;;;;;;11.93;8.20;;;27.00;19.60;;;;;;5028040;28;20391;-77
2022/08/16 09:54:37;;;;;;;9.63;7.80;;;27.20;19.20;;;;;;4996223;28;20404;-79
2022/08/16 09:57:03;;;;;;;12.63;7.32;;;27.20;18.20;;;;;;4982374;28;20406;-80
2022/08/16 09:59:30;;;;;;;10.60;7.80;;;27.30;18.30;;;;;;4996778;28;20413;-78
2022/08/16 10:01:55;;;;;;;10.45;7.65;;;27.40;18.10;;;;;;4996327;28;20759;-79
2022/08/16 10:04:24;;;;;;;10.48;7.35;;;27.50;17.20;;;;;;5000776;28;20395;-80
2022/08/16 10:06:49;;;;;;;9.50;7.30;;;27.50;17.20;;;;;;4980703;28;20386;-80
2022/08/16 10:09:15;;;;;;;11.20;7.70;;;27.60;17.30;;;;;;5004957;28;20406;-79
2022/08/16 10:14:29;;;;;;;11.73;7.50;;;27.80;16.80;;;;;;4999766;28;20486;-79
2022/08/16 10:16:57;;;;;;;10.75;7.60;;;27.90;16.80;;;;;;5008262;28;20410;-79
2022/08/16 10:19:23;;;;;;;12.60;7.10;;;27.90;16.40;;;;;;5007973;28;20414;-77
2022/08/16 10:21:49;;;;;;;10.52;7.13;;;28.00;15.00;;;;;;5005826;28;20398;-79
2022/08/16 10:24:14;;;;;;;13.48;7.10;;;27.90;15.20;;;;;;4995253;28;20390;-76
2022/08/16 10:26:40;;;;;;;11.60;6.90;;;28.10;15.00;;;;;;5000487;28;20491;-78
2022/08/16 10:29:06;;;;;;;11.35;7.22;;;28.20;15.20;;;;;;5002948;28;20393;-79
2022/08/16 10:31:33;;;;;;;13.63;7.50;;;28.20;15.40;;;;;;5001488;28;20418;-78
2022/08/16 10:34:00;;;;;;;9.85;7.70;;;28.00;15.60;;;;;;5003023;28;20457;-79
2022/08/16 10:36:26;;;;;;;11.57;7.22;;;27.90;15.00;;;;;;4999028;28;20851;-78
2022/08/16 10:38:51;;;;;;;11.15;7.50;;;27.90;14.80;;;;;;5002079;28;20464;-78
2022/08/16 10:41:17;;;;;;;9.50;7.03;;;28.00;15.40;;;;;;4998836;28;20872;-79
2022/08/16 10:43:43;;;;;;;11.77;6.97;;;28.00;15.30;;;;;;4999180;28;20473;-78
2022/08/16 10:46:11;;;;;;;11.93;7.70;;;28.00;15.40;;;;;;4999710;28;20409;-78
2022/08/16 10:48:38;;;;;;;10.23;7.20;;;28.10;15.10;;;;;;4998201;28;20422;-78
2022/08/16 10:51:05;;;;;;;11.53;7.20;;;28.20;14.90;;;;;;4998095;28;20751;-78
2022/08/16 10:53:31;;;;;;;8.32;6.88;;;28.40;13.80;;;;;;4980111;28;20452;-78
2022/08/16 10:55:58;;;;;;;10.48;6.32;;;28.40;13.70;;;;;;4998411;28;20875;-79
2022/08/16 10:58:25;;;;;;;11.30;6.45;;;28.40;13.00;;;;;;4997869;28;20418;-77
2022/08/16 11:00:50;;;;;;;18.17;7.35;;;28.60;13.50;;;;;;4995320;28;20386;-78
2022/08/16 11:03:17;;;;;;;12.38;6.00;;;28.50;13.20;;;;;;4995976;28;20771;-78
2022/08/16 11:05:43;;;;;;;11.45;6.63;;;28.50;13.00;;;;;;4996497;28;20839;-78
2022/08/16 11:08:10;;;;;;;7.85;6.32;;;28.60;13.10;;;;;;4995517;28;20386;-78
2022/08/16 11:10:41;;;;;;;8.55;6.80;;;28.40;12.80;;;;;;4996721;28;20404;-78
2022/08/16 11:13:09;;;;;;;10.75;6.97;;;28.10;14.20;;;;;;4980695;28;20548;-78
2022/08/16 11:15:35;;;;;;;11.85;6.50;;;28.10;14.00;;;;;;4998087;28;20402;-78
2022/08/16 11:18:01;;;;;;;10.35;6.35;;;28.10;13.80;;;;;;4997746;28;20426;-77
2022/08/16 11:20:27;;;;;;;10.57;6.30;;;28.30;13.20;;;;;;4996585;28;20391;-78
2022/08/16 11:22:54;;;;;;;11.65;6.20;;;28.50;12.30;;;;;;4981237;28;20383;-77
2022/08/16 11:25:23;;;;;;;8.65;6.40;;;28.70;12.10;;;;;;5000850;28;20379;-78
2022/08/16 11:27:49;;;;;;;7.90;5.90;;;28.70;11.90;;;;;;5006601;28;20383;-78
2022/08/16 11:30:15;;;;;;;12.80;6.57;;;28.70;12.10;;;;;;5001021;28;20448;-78
2022/08/16 11:32:45;;;;;;;12.15;6.40;;;28.70;11.80;;;;;;5002319;28;20386;-78
2022/08/16 11:35:14;;;;;;;11.50;6.22;;;28.70;11.60;;;;;;5000265;28;20387;-78
2022/08/16 11:37:41;;;;;;;8.15;5.80;;;28.80;11.00;;;;;;4998844;28;20466;-79
2022/08/16 11:40:07;;;;;;;13.10;6.07;;;29.00;11.30;;;;;;4998609;28;20410;-79
2022/08/16 11:42:33;;;;;;;8.40;6.20;;;29.10;10.70;;;;;;4998083;28;20469;-78
2022/08/16 11:44:59;;;;;;;10.00;6.10;;;29.30;10.70;;;;;;4997934;28;20391;-78
2022/08/16 11:47:24;;;;;;;12.20;7.05;;;29.20;10.20;;;;;;4997721;28;20382;-78
2022/08/16 11:49:50;;;;;;;10.77;6.33;;;29.20;10.80;;;;;;4996473;28;20387;-79
2022/08/16 11:52:16;;;;;;;9.50;6.15;;;29.40;10.30;;;;;;4998550;28;20931;-78
2022/08/16 11:54:43;;;;;;;11.30;5.70;;;29.60;10.40;;;;;;4998270;28;20413;-79
2022/08/16 11:57:10;;;;;;;10.50;6.50;;;29.80;9.10;;;;;;4997548;28;20394;-77
2022/08/16 11:59:37;;;;;;;7.38;6.13;;;30.10;8.80;;;;;;4997851;28;20411;-78
2022/08/16 12:02:05;;;;;;;9.68;6.78;;;30.30;9.00;;;;;;4981030;28;20391;-78
2022/08/16 12:04:32;;;;;;;9.43;6.25;;;30.10;9.30;;;;;;4998624;28;20391;-78
2022/08/16 12:06:58;;;;;;;14.20;7.57;;;30.10;9.60;;;;;;4998112;28;20382;-79
2022/08/16 12:09:24;;;;;;;9.93;6.65;;;30.20;9.40;;;;;;4980670;28;20601;-78
2022/08/16 12:11:50;;;;;;;12.30;6.60;;;30.50;9.30;;;;;;4997569;28;20395;-79
2022/08/16 12:14:16;;;;;;;10.40;6.53;;;30.70;8.20;;;;;;4998742;28;20402;-80
2022/08/16 12:16:41;;;;;;;12.90;7.32;;;30.90;8.20;;;;;;4998139;28;20487;-79
2022/08/16 12:19:07;;;;;;;10.20;6.30;;;31.00;8.50;;;;;;4997735;28;20454;-78
2022/08/16 12:21:33;;;;;;;10.50;6.80;;;31.00;8.20;;;;;;4980337;28;20422;-78
2022/08/16 12:23:59;;;;;;;12.90;6.00;;;30.90;8.30;;;;;;4995544;28;20406;-79
2022/08/16 12:26:24;;;;;;;9.38;6.43;;;31.00;8.50;;;;;;4993979;28;20414;-78
2022/08/16 12:28:52;;;;;;;14.80;6.37;;;31.00;8.30;;;;;;5011420;28;20467;-79
2022/08/16 12:31:19;;;;;;;8.43;5.85;;;30.70;7.80;;;;;;5015270;28;20493;-80
2022/08/16 12:33:44;;;;;;;8.02;6.20;;;30.50;7.60;;;;;;5003446;28;20421;-77
2022/08/16 12:36:12;;;;;;;11.47;6.40;;;30.30;8.40;;;;;;5014193;28;20396;-79
2022/08/16 12:38:38;;;;;;;13.75;6.50;;;30.00;9.00;;;;;;4980189;28;20414;-79